Santy — V7TV6 — position and weather

sailwx.info

Track history (hours):
 
Tides and Currents Weather Stations Pressure Air Temp Water Temp Dewpoint Dewpoint Depression Visibility Wind Speed Wind Dir Waves Ship Positions

Santy

Last reported at 2018-May-18 12:19 UTC. Time now 2018-May-24 10:07 UTC.
Position N 36°01' W 005°09'.

Length 190 m; draft 10.1 m.

Type: Cargo ship. MMSI: 538003892.

Date/timePositionNaut miles runAvg speedWind from/ knotsBaromVisibWave heightAir tempDewpointWater temp
2018-May-18 12:19N 36°01' W 005°09'412.9
2018-May-18 12:00N 36°01' W 005°14'611.8
2018-May-18 11:31N 36°02' W 005°21'4 9.0
2018-May-18 11:01N 36°06' W 005°23'2 3.3
2018-May-18 10:29N 36°07' W 005°21'0 0.0
2018-May-18 09:59N 36°07' W 005°21'0 0.1
2018-May-18 09:29N 36°07' W 005°21'0 0.0
2018-May-18 08:59N 36°07' W 005°21'0 0.2
2018-May-18 08:29N 36°07' W 005°21'0 0.1
2018-May-18 07:59N 36°07' W 005°21'0 0.1
2018-May-18 07:26N 36°07' W 005°21'0 0.1
2018-May-18 06:59N 36°07' W 005°21'0 0.2
2018-May-18 06:14N 36°07' W 005°21'0 0.1
2018-May-18 05:50N 36°07' W 005°21'0 0.1
2018-May-18 05:29N 36°07' W 005°21'0 0.0
2018-May-18 04:59N 36°07' W 005°21'0 0.1
2018-May-18 04:29N 36°07' W 005°21'0 0.0
2018-May-18 03:59N 36°07' W 005°21'0 0.0
2018-May-18 03:29N 36°07' W 005°21'0 0.2
2018-May-18 02:56N 36°07' W 005°21'0 0.1
2018-May-18 02:29N 36°07' W 005°21'0 0.1
2018-May-18 01:59N 36°07' W 005°21'0 0.0
2018-May-18 01:26N 36°07' W 005°21'0 0.1
2018-May-18 00:59N 36°07' W 005°21'0 0.1
2018-May-18 00:26N 36°07' W 005°21'0 0.1
2018-May-17 23:56N 36°07' W 005°21'0 0.1
2018-May-17 23:29N 36°07' W 005°21'0 0.0
2018-May-17 22:56N 36°07' W 005°21'0 0.1
2018-May-17 22:29N 36°07' W 005°21'0 0.3
2018-May-17 21:56N 36°07' W 005°21'0 0.0
2018-May-17 21:26N 36°07' W 005°21'0 0.1
2018-May-17 20:59N 36°07' W 005°21'0 0.1
2018-May-17 20:29N 36°07' W 005°21'0 0.1
2018-May-17 19:38N 36°07' W 005°21'0 0.1
2018-May-17 19:29N 36°07' W 005°21'0 0.2
2018-May-17 18:56N 36°07' W 005°21'0 0.1
2018-May-17 18:26N 36°07' W 005°22'0 0.1
2018-May-17 17:56N 36°07' W 005°21'0 0.0
2018-May-17 17:29N 36°07' W 005°21'0 0.2
2018-May-17 16:59N 36°07' W 005°21'0 0.1
2018-May-17 16:29N 36°07' W 005°21'0 0.0
2018-May-17 15:59N 36°07' W 005°21'0 0.1
2018-May-17 15:05N 36°07' W 005°21'0 0.2
2018-May-17 14:59N 36°07' W 005°21'0 0.1
2018-May-17 14:29N 36°07' W 005°21'0 0.0
2018-May-17 13:59N 36°07' W 005°21'0 0.4
2018-May-17 13:29N 36°07' W 005°21'2 3.9
2018-May-17 13:00N 36°05' W 005°22'5 9.6
2018-May-17 12:30N 36°01' W 005°20'611.9
2018-May-17 12:00N 35°58' W 005°27'711.6
2018-May-17 11:24N 35°56' W 005°35'510.8
2018-May-17 10:59N 35°55' W 005°41'510.0
2018-May-17 10:30N 35°55' W 005°47'710.4
2018-May-17 09:51N 35°53' W 005°55'33010.0
2018-May-16 00:45N 32°07' W 010°45'283 8.8
2018-May-14 16:30N 28°47' W 014°37'8 9.3
2018-May-14 15:41N 28°42' W 014°44'2 9.0
2018-May-14 15:30N 28°40' W 014°45'5 9.2
2018-May-14 15:01N 28°37' W 014°49'5 9.0
2018-May-14 14:30N 28°34' W 014°52'5 9.1
2018-May-14 14:00N 28°31' W 014°56'5 9.1
2018-May-14 13:29N 28°27' W 014°59'5 8.9
2018-May-14 12:58N 28°23' W 015°02'4 9.1
2018-May-14 12:31N 28°20' W 015°05'4 8.8
2018-May-14 12:00N 28°16' W 015°08'5 9.2
2018-May-14 11:30N 28°12' W 015°11'5 9.3
2018-May-14 11:01N 28°09' W 015°14'5 9.3
2018-May-14 10:30N 28°05' W 015°17'3 5.7
2018-May-14 10:00N 28°03' W 015°20'3 5.7
2018-May-14 09:31N 28°06' W 015°19'5 9.0
2018-May-14 09:00N 28°07' W 015°14'611.4
2018-May-14 08:30N 28°07' W 015°08'611.2
2018-May-14 08:00N 28°07' W 015°02'510.8
2018-May-14 07:30N 28°06' W 014°56'5 9.2
2018-May-14 07:00N 28°02' W 014°57'5 9.3
2018-May-14 06:30N 27°57' W 014°59'5 9.4
2018-May-14 06:00N 27°53' W 015°01'5 9.2
2018-May-14 05:30N 27°49' W 015°03'4 8.9
2018-May-14 05:00N 27°45' W 015°05'5 9.2
2018-May-14 04:30N 27°40' W 015°07'  
Track history (hours):
 
Tides and Currents Weather Stations Pressure Air Temp Water Temp Dewpoint Dewpoint Depression Visibility Wind Speed Wind Dir Waves Ship Positions

Santy

Last reported at 2018-May-18 12:19 UTC. Time now 2018-May-24 10:07 UTC.
Position N 36°01' W 005°09'.

Length 190 m; draft 10.1 m.

Type: Cargo ship. MMSI: 538003892.

Date/timePositionNaut miles runAvg speedWind from/ knotsBaromVisibWave heightAir tempDewpointWater temp
2018-May-18 12:19N 36°01' W 005°09'412.9
2018-May-18 12:00N 36°01' W 005°14'611.8
2018-May-18 11:31N 36°02' W 005°21'4 9.0
2018-May-18 11:01N 36°06' W 005°23'2 3.3
2018-May-18 10:29N 36°07' W 005°21'0 0.0
2018-May-18 09:59N 36°07' W 005°21'0 0.1
2018-May-18 09:29N 36°07' W 005°21'0 0.0
2018-May-18 08:59N 36°07' W 005°21'0 0.2
2018-May-18 08:29N 36°07' W 005°21'0 0.1
2018-May-18 07:59N 36°07' W 005°21'0 0.1
2018-May-18 07:26N 36°07' W 005°21'0 0.1
2018-May-18 06:59N 36°07' W 005°21'0 0.2
2018-May-18 06:14N 36°07' W 005°21'0 0.1
2018-May-18 05:50N 36°07' W 005°21'0 0.1
2018-May-18 05:29N 36°07' W 005°21'0 0.0
2018-May-18 04:59N 36°07' W 005°21'0 0.1
2018-May-18 04:29N 36°07' W 005°21'0 0.0
2018-May-18 03:59N 36°07' W 005°21'0 0.0
2018-May-18 03:29N 36°07' W 005°21'0 0.2
2018-May-18 02:56N 36°07' W 005°21'0 0.1
2018-May-18 02:29N 36°07' W 005°21'0 0.1
2018-May-18 01:59N 36°07' W 005°21'0 0.0
2018-May-18 01:26N 36°07' W 005°21'0 0.1
2018-May-18 00:59N 36°07' W 005°21'0 0.1
2018-May-18 00:26N 36°07' W 005°21'0 0.1
2018-May-17 23:56N 36°07' W 005°21'0 0.1
2018-May-17 23:29N 36°07' W 005°21'0 0.0
2018-May-17 22:56N 36°07' W 005°21'0 0.1
2018-May-17 22:29N 36°07' W 005°21'0 0.3
2018-May-17 21:56N 36°07' W 005°21'0 0.0
2018-May-17 21:26N 36°07' W 005°21'0 0.1
2018-May-17 20:59N 36°07' W 005°21'0 0.1
2018-May-17 20:29N 36°07' W 005°21'0 0.1
2018-May-17 19:38N 36°07' W 005°21'0 0.1
2018-May-17 19:29N 36°07' W 005°21'0 0.2
2018-May-17 18:56N 36°07' W 005°21'0 0.1
2018-May-17 18:26N 36°07' W 005°22'0 0.1
2018-May-17 17:56N 36°07' W 005°21'0 0.0
2018-May-17 17:29N 36°07' W 005°21'0 0.2
2018-May-17 16:59N 36°07' W 005°21'0 0.1
2018-May-17 16:29N 36°07' W 005°21'0 0.0
2018-May-17 15:59N 36°07' W 005°21'0 0.1
2018-May-17 15:05N 36°07' W 005°21'0 0.2
2018-May-17 14:59N 36°07' W 005°21'0 0.1
2018-May-17 14:29N 36°07' W 005°21'0 0.0
2018-May-17 13:59N 36°07' W 005°21'0 0.4
2018-May-17 13:29N 36°07' W 005°21'2 3.9
2018-May-17 13:00N 36°05' W 005°22'5 9.6
2018-May-17 12:30N 36°01' W 005°20'611.9
2018-May-17 12:00N 35°58' W 005°27'711.6
2018-May-17 11:24N 35°56' W 005°35'510.8
2018-May-17 10:59N 35°55' W 005°41'510.0
2018-May-17 10:30N 35°55' W 005°47'710.4
2018-May-17 09:51N 35°53' W 005°55'33010.0
2018-May-16 00:45N 32°07' W 010°45'283 8.8
2018-May-14 16:30N 28°47' W 014°37'8 9.3
2018-May-14 15:41N 28°42' W 014°44'2 9.0
2018-May-14 15:30N 28°40' W 014°45'5 9.2
2018-May-14 15:01N 28°37' W 014°49'5 9.0
2018-May-14 14:30N 28°34' W 014°52'5 9.1
2018-May-14 14:00N 28°31' W 014°56'5 9.1
2018-May-14 13:29N 28°27' W 014°59'5 8.9
2018-May-14 12:58N 28°23' W 015°02'4 9.1
2018-May-14 12:31N 28°20' W 015°05'4 8.8
2018-May-14 12:00N 28°16' W 015°08'5 9.2
2018-May-14 11:30N 28°12' W 015°11'5 9.3
2018-May-14 11:01N 28°09' W 015°14'5 9.3
2018-May-14 10:30N 28°05' W 015°17'3 5.7
2018-May-14 10:00N 28°03' W 015°20'3 5.7
2018-May-14 09:31N 28°06' W 015°19'5 9.0
2018-May-14 09:00N 28°07' W 015°14'611.4
2018-May-14 08:30N 28°07' W 015°08'611.2
2018-May-14 08:00N 28°07' W 015°02'510.8
2018-May-14 07:30N 28°06' W 014°56'5 9.2
2018-May-14 07:00N 28°02' W 014°57'5 9.3
2018-May-14 06:30N 27°57' W 014°59'5 9.4
2018-May-14 06:00N 27°53' W 015°01'5 9.2
2018-May-14 05:30N 27°49' W 015°03'4 8.9
2018-May-14 05:00N 27°45' W 015°05'5 9.2
2018-May-14 04:30N 27°40' W 015°07'  

Dump ship's entire track history